Metar z połowy godziny Komunikat METAR ze strony awiacja.imgw.pl Metar G30 EPLK METAR EPLK 200400Z AUTO 27008KT 9999 BKN018/// OVC024/// 04/03 Q1015 RMK 043 089 8/7=